createdAt,value
2023-04-18T00:00:39.811Z,9.457117
2023-04-18T00:01:39.791Z,9.457070
2023-04-18T00:02:39.870Z,9.457107
2023-04-18T00:03:40.035Z,9.457230
2023-04-18T00:04:39.782Z,9.457327
2023-04-18T00:05:39.765Z,9.457265
2023-04-18T00:06:39.719Z,9.457245
2023-04-18T00:07:39.722Z,9.457325
2023-04-18T00:08:39.704Z,9.457308
2023-04-18T00:09:39.738Z,9.457354
2023-04-18T00:10:39.723Z,9.457409
2023-04-18T00:11:39.679Z,9.457340
2023-04-18T00:12:39.656Z,9.457183
2023-04-18T00:13:39.662Z,9.457318
2023-04-18T00:14:39.643Z,9.457303
2023-04-18T00:15:39.627Z,9.457476
2023-04-18T00:16:39.644Z,9.457355
2023-04-18T00:17:39.710Z,9.457294
2023-04-18T00:18:39.590Z,9.457341
2023-04-18T00:19:39.592Z,9.457426
2023-04-18T00:20:39.635Z,9.457474
2023-04-18T00:21:39.587Z,9.457301
2023-04-18T00:22:39.545Z,9.457348
2023-04-18T00:23:39.529Z,9.457320
2023-04-18T00:24:39.560Z,9.457389
2023-04-18T00:25:39.507Z,9.457262
2023-04-18T00:26:39.499Z,9.457351
2023-04-18T00:27:39.490Z,9.457267
2023-04-18T00:28:39.488Z,9.457348
2023-04-18T00:29:39.534Z,9.457316
2023-04-18T00:30:39.503Z,9.457349
2023-04-18T00:31:39.497Z,9.457388
2023-04-18T00:32:39.480Z,9.457376
2023-04-18T00:33:39.424Z,9.457314
2023-04-18T00:34:39.432Z,9.457293
2023-04-18T00:35:39.406Z,9.457343
2023-04-18T00:36:39.438Z,9.457326
2023-04-18T00:37:39.385Z,9.457267
2023-04-18T00:38:39.369Z,9.457296
2023-04-18T00:39:39.361Z,9.457284
2023-04-18T00:40:39.402Z,9.457348
2023-04-18T00:41:39.349Z,9.457425
2023-04-18T00:42:39.335Z,9.457470
2023-04-18T00:43:39.351Z,9.457261
2023-04-18T00:44:39.336Z,9.457277
2023-04-18T00:45:39.293Z,9.457347
2023-04-18T00:46:39.350Z,9.457312
2023-04-18T00:47:39.357Z,9.457275
2023-04-18T00:48:39.274Z,9.457272
2023-04-18T00:49:39.249Z,9.457256
2023-04-18T00:50:39.283Z,9.457253
2023-04-18T00:51:39.225Z,9.457294
2023-04-18T00:52:39.231Z,9.457279
2023-04-18T00:53:39.207Z,9.457246
2023-04-18T00:54:39.197Z,9.457257
2023-04-18T00:55:39.205Z,9.457251
2023-04-18T00:56:39.185Z,9.457253
2023-04-18T00:57:39.156Z,9.457252
2023-04-18T00:58:39.141Z,9.457270
2023-04-18T00:59:39.146Z,9.457282
2023-04-18T01:00:39.163Z,9.457364
2023-04-18T01:01:39.249Z,9.457409
2023-04-18T01:02:39.188Z,9.457356
2023-04-18T01:03:39.317Z,9.457324
2023-04-18T01:04:39.151Z,9.457353
2023-04-18T01:05:39.097Z,9.457357
2023-04-18T01:06:39.076Z,9.457355
2023-04-18T01:07:39.060Z,9.457363
2023-04-18T01:08:39.047Z,9.457236
2023-04-18T01:09:39.021Z,9.457141
2023-04-18T01:10:39.051Z,9.457173
2023-04-18T01:11:38.999Z,9.457231
2023-04-18T01:12:38.995Z,9.457287
2023-04-18T01:13:38.987Z,9.457263
2023-04-18T01:14:38.967Z,9.457169
2023-04-18T01:15:39.063Z,9.457353
2023-04-18T01:16:38.953Z,9.457263
2023-04-18T01:17:38.962Z,9.457169
2023-04-18T01:18:38.926Z,9.457267
2023-04-18T01:19:38.919Z,9.457261
2023-04-18T01:20:38.924Z,9.457219
2023-04-18T01:21:38.881Z,9.457237
2023-04-18T01:22:38.873Z,9.457211
2023-04-18T01:23:38.858Z,9.457267
2023-04-18T01:24:38.854Z,9.457330
2023-04-18T01:25:38.889Z,9.457283
2023-04-18T01:26:38.835Z,9.457243
2023-04-18T01:27:38.814Z,9.457253
2023-04-18T01:28:38.836Z,9.457241
2023-04-18T01:29:39.068Z,9.457264
2023-04-18T01:30:39.799Z,9.457240
2023-04-18T01:31:38.893Z,9.457223
2023-04-18T01:32:38.771Z,9.457240
2023-04-18T01:33:38.754Z,9.457361
2023-04-18T01:34:38.752Z,9.457265
2023-04-18T01:35:38.744Z,9.457174
2023-04-18T01:36:38.722Z,9.457238
2023-04-18T01:37:38.700Z,9.457297
2023-04-18T01:38:38.698Z,9.457236
2023-04-18T01:39:38.688Z,9.457231
2023-04-18T01:40:38.755Z,9.457239
2023-04-18T01:41:38.660Z,9.457190
2023-04-18T01:42:38.647Z,9.457203
2023-04-18T01:43:38.634Z,9.457316
2023-04-18T01:44:38.622Z,9.457274
2023-04-18T01:45:38.692Z,9.457217
2023-04-18T01:46:38.643Z,9.457244
2023-04-18T01:47:38.635Z,9.457233
2023-04-18T01:48:38.578Z,9.457217
2023-04-18T01:49:38.608Z,9.457223
2023-04-18T01:50:38.574Z,9.457192
2023-04-18T01:51:38.744Z,9.457262
2023-04-18T01:52:38.567Z,9.457212
2023-04-18T01:53:38.519Z,9.457314
2023-04-18T01:54:38.533Z,9.457487
2023-04-18T01:55:38.540Z,9.457292
2023-04-18T01:56:38.489Z,9.457207
2023-04-18T01:57:38.495Z,9.457195
2023-04-18T01:58:38.468Z,9.457147
2023-04-18T01:59:38.461Z,9.457141
2023-04-18T02:00:38.513Z,9.457304
2023-04-18T02:01:38.432Z,9.457512
2023-04-18T02:02:38.501Z,9.457583
2023-04-18T02:03:38.564Z,9.457627
2023-04-18T02:04:38.397Z,9.457655
2023-04-18T02:05:38.400Z,9.457536
2023-04-18T02:06:38.372Z,9.457274
2023-04-18T02:07:38.403Z,9.457237
2023-04-18T02:08:38.357Z,9.457269
2023-04-18T02:09:38.351Z,9.457160
2023-04-18T02:10:38.372Z,9.457128
2023-04-18T02:11:38.317Z,9.457223
2023-04-18T02:12:38.301Z,9.457293
2023-04-18T02:13:38.340Z,9.457307
2023-04-18T02:14:38.312Z,9.457453
2023-04-18T02:15:38.310Z,9.457512
2023-04-18T02:16:38.288Z,9.457664
2023-04-18T02:17:38.285Z,9.457602
2023-04-18T02:18:38.251Z,9.457475
2023-04-18T02:19:38.231Z,9.457590
2023-04-18T02:20:38.241Z,9.457510
2023-04-18T02:21:38.210Z,9.457396
2023-04-18T02:22:38.220Z,9.457389
2023-04-18T02:23:38.174Z,9.457356
2023-04-18T02:24:38.164Z,9.457318
2023-04-18T02:25:38.181Z,9.457382
2023-04-18T02:26:38.136Z,9.457310
2023-04-18T02:27:38.123Z,9.457239
2023-04-18T02:28:38.120Z,9.457215
2023-04-18T02:29:38.188Z,9.457308
2023-04-18T02:30:38.139Z,9.457258
2023-04-18T02:31:38.142Z,9.457357
2023-04-18T02:32:38.168Z,9.457354
2023-04-18T02:33:38.066Z,9.457298
2023-04-18T02:34:38.075Z,9.457311
2023-04-18T02:35:38.072Z,9.457324
2023-04-18T02:36:38.025Z,9.457272
2023-04-18T02:37:38.010Z,9.457227
2023-04-18T02:38:38.002Z,9.457256
2023-04-18T02:39:37.999Z,9.457248
2023-04-18T02:40:38.024Z,9.457261
2023-04-18T02:41:37.983Z,9.457194
2023-04-18T02:42:37.966Z,9.457189
2023-04-18T02:43:37.975Z,9.457225
2023-04-18T02:44:37.955Z,9.457187
2023-04-18T02:45:38.004Z,9.457193
2023-04-18T02:46:37.910Z,9.457232
2023-04-18T02:47:51.254Z,9.457215
2023-04-18T02:48:39.904Z,9.457235
2023-04-18T02:49:37.871Z,9.457152
2023-04-18T02:50:37.956Z,9.457239
2023-04-18T02:51:37.855Z,9.457242
2023-04-18T02:52:37.843Z,9.457278
2023-04-18T02:53:37.827Z,9.457283
2023-04-18T02:54:37.822Z,9.457285
2023-04-18T02:55:37.833Z,9.457268
2023-04-18T02:56:37.795Z,9.457351
2023-04-18T02:57:37.775Z,9.457162
2023-04-18T02:58:38.776Z,9.457284
2023-04-18T02:59:37.766Z,9.457322
2023-04-18T03:00:37.819Z,9.457257
2023-04-18T03:01:37.802Z,9.457134
2023-04-18T03:02:37.813Z,9.457169
2023-04-18T03:03:37.712Z,9.457249
2023-04-18T03:04:37.736Z,9.457196
2023-04-18T03:05:37.726Z,9.457375
2023-04-18T03:06:37.681Z,9.457381
2023-04-18T03:07:37.672Z,9.457350
2023-04-18T03:08:37.656Z,9.457116
2023-04-18T03:09:37.664Z,9.457378
2023-04-18T03:10:37.703Z,9.457312
2023-04-18T03:11:37.635Z,9.457218
2023-04-18T03:12:37.634Z,9.457289
2023-04-18T03:13:37.610Z,9.457253
2023-04-18T03:14:37.612Z,9.457313
2023-04-18T03:15:37.624Z,9.457276
2023-04-18T03:16:37.567Z,9.457332
2023-04-18T03:17:37.572Z,9.457169
2023-04-18T03:18:37.562Z,9.457172
2023-04-18T03:19:37.532Z,9.457246
2023-04-18T03:20:37.587Z,9.457210
2023-04-18T03:21:37.525Z,9.457179
2023-04-18T03:22:37.503Z,9.457114
2023-04-18T03:23:37.493Z,9.457072
2023-04-18T03:24:37.522Z,9.457339
2023-04-18T03:25:37.495Z,9.457184
2023-04-18T03:26:37.462Z,9.457134
2023-04-18T03:27:37.455Z,9.457229
2023-04-18T03:28:37.442Z,9.457094
2023-04-18T03:29:37.429Z,9.457057
2023-04-18T03:30:37.475Z,9.457165
2023-04-18T03:31:37.508Z,9.457201
2023-04-18T03:32:37.415Z,9.457143
2023-04-18T03:33:37.391Z,9.457115
2023-04-18T03:34:37.376Z,9.456934
2023-04-18T03:35:37.389Z,9.457124
2023-04-18T03:36:37.352Z,9.457211
2023-04-18T03:37:37.341Z,9.457223
2023-04-18T03:38:37.326Z,9.457117
2023-04-18T03:39:37.325Z,9.457034
2023-04-18T03:40:37.331Z,9.457050
2023-04-18T03:41:37.301Z,9.457192
2023-04-18T03:42:37.298Z,9.457148
2023-04-18T03:43:37.287Z,9.457024
2023-04-18T03:44:37.291Z,9.457221
2023-04-18T03:45:37.279Z,9.457269
2023-04-18T03:46:37.371Z,9.457297
2023-04-18T03:47:37.254Z,9.457198
2023-04-18T03:48:37.364Z,9.457183
2023-04-18T03:49:37.216Z,9.457198
2023-04-18T03:50:37.226Z,9.457231
2023-04-18T03:51:37.191Z,9.457281
2023-04-18T03:52:37.184Z,9.457339
2023-04-18T03:53:37.169Z,9.457316
2023-04-18T03:54:37.169Z,9.457242
2023-04-18T03:55:37.168Z,9.457177
2023-04-18T03:56:37.137Z,9.457196
2023-04-18T03:57:37.142Z,9.457213
2023-04-18T03:58:37.117Z,9.457195
2023-04-18T03:59:37.115Z,9.457284
2023-04-18T04:00:37.125Z,9.457356
2023-04-18T04:02:09.562Z,9.457202
2023-04-18T04:02:37.206Z,9.457214
2023-04-18T04:03:37.279Z,9.457266
2023-04-18T04:04:37.075Z,9.457289
2023-04-18T04:05:37.058Z,9.457167
2023-04-18T04:06:37.050Z,9.457116
2023-04-18T04:07:37.021Z,9.457144
2023-04-18T04:08:37.001Z,9.457124
2023-04-18T04:09:37.007Z,9.457021
2023-04-18T04:10:37.025Z,9.457036
2023-04-18T04:11:36.976Z,9.457099
2023-04-18T04:12:36.959Z,9.457206
2023-04-18T04:13:37.016Z,9.457140
2023-04-18T04:14:36.938Z,9.457162
2023-04-18T04:15:36.960Z,9.457191
2023-04-18T04:16:37.034Z,9.457104
2023-04-18T04:17:36.939Z,9.457129
2023-04-18T04:18:36.907Z,9.457208
2023-04-18T04:19:36.892Z,9.457260
2023-04-18T04:20:36.899Z,9.457183
2023-04-18T04:21:36.875Z,9.457283
2023-04-18T04:22:36.865Z,9.457248
2023-04-18T04:23:36.852Z,9.457183
2023-04-18T04:24:36.853Z,9.457287
2023-04-18T04:25:36.862Z,9.457253
2023-04-18T04:26:36.822Z,9.457219
2023-04-18T04:27:36.860Z,9.457218
2023-04-18T04:28:36.825Z,9.457217
2023-04-18T04:29:36.789Z,9.457141
2023-04-18T04:30:36.817Z,9.457193
2023-04-18T04:31:36.820Z,9.457175
2023-04-18T04:32:36.798Z,9.457189
2023-04-18T04:33:36.740Z,9.457259
2023-04-18T04:34:36.764Z,9.457244
2023-04-18T04:35:36.749Z,9.457257
2023-04-18T04:36:36.721Z,9.457304
2023-04-18T04:37:36.718Z,9.457277
2023-04-18T04:38:36.685Z,9.457329
2023-04-18T04:39:36.686Z,9.457190
2023-04-18T04:40:36.676Z,9.457059
2023-04-18T04:41:36.694Z,9.457125
2023-04-18T04:42:36.652Z,9.457207
2023-04-18T04:43:36.656Z,9.457211
2023-04-18T04:44:36.651Z,9.457357
2023-04-18T04:45:36.669Z,9.457422
2023-04-18T04:46:36.603Z,9.457279
2023-04-18T04:47:36.670Z,9.457333
2023-04-18T04:48:36.585Z,9.457284
2023-04-18T04:49:36.570Z,9.457206
2023-04-18T04:50:36.560Z,9.457212
2023-04-18T04:51:36.594Z,9.457196
2023-04-18T04:52:36.546Z,9.457271
2023-04-18T04:53:36.536Z,9.457258
2023-04-18T04:54:36.541Z,9.457310
2023-04-18T04:55:36.545Z,9.457230
2023-04-18T04:56:36.496Z,9.457296
2023-04-18T04:57:36.486Z,9.457099
2023-04-18T04:58:36.478Z,9.457178
2023-04-18T04:59:36.465Z,9.457219
2023-04-18T05:00:36.462Z,9.457279
2023-04-18T05:01:36.594Z,9.457091
2023-04-18T05:02:36.588Z,9.457110
2023-04-18T05:03:36.686Z,9.457071
2023-04-18T05:04:36.493Z,9.457220
2023-04-18T05:05:36.429Z,9.457253
2023-04-18T05:06:37.431Z,9.457376
2023-04-18T05:07:36.388Z,9.457151
2023-04-18T05:08:36.386Z,9.457122
2023-04-18T05:09:36.369Z,9.457355
2023-04-18T05:10:36.362Z,9.457214
2023-04-18T05:11:36.435Z,9.457232
2023-04-18T05:12:36.388Z,9.457207
2023-04-18T05:13:36.335Z,9.457247
2023-04-18T05:14:36.319Z,9.457277
2023-04-18T05:15:36.310Z,9.457146
2023-04-18T05:16:36.373Z,9.457014
2023-04-18T05:17:36.352Z,9.457043
2023-04-18T05:18:36.274Z,9.457232
2023-04-18T05:19:36.258Z,9.457317
2023-04-18T05:20:36.304Z,9.457218
2023-04-18T05:21:36.244Z,9.457295
2023-04-18T05:22:36.230Z,9.457197
2023-04-18T05:23:36.212Z,9.457198
2023-04-18T05:24:36.214Z,9.457308
2023-04-18T05:25:36.227Z,9.457239
2023-04-18T05:26:36.184Z,9.457149
2023-04-18T05:27:36.202Z,9.457312
2023-04-18T05:28:36.170Z,9.457314
2023-04-18T05:29:36.149Z,9.457307
2023-04-18T05:30:36.209Z,9.457253
2023-04-18T05:31:36.292Z,9.457303
2023-04-18T05:32:36.199Z,9.457355
2023-04-18T05:33:36.115Z,9.457231
2023-04-18T05:34:38.033Z,9.457403
2023-04-18T05:35:37.119Z,9.457346
2023-04-18T05:36:36.097Z,9.457230
2023-04-18T05:37:36.100Z,9.457258
2023-04-18T05:38:36.091Z,9.457248
2023-04-18T05:39:36.051Z,9.457340
2023-04-18T05:40:36.086Z,9.457357
2023-04-18T05:41:36.042Z,9.457206
2023-04-18T05:42:36.024Z,9.457201
2023-04-18T05:43:36.026Z,9.457268
2023-04-18T05:44:36.022Z,9.457168
2023-04-18T05:45:36.031Z,9.457158
2023-04-18T05:46:36.039Z,9.457360
2023-04-18T05:47:36.027Z,9.457132
2023-04-18T05:48:35.989Z,9.456964
2023-04-18T05:49:35.957Z,9.456832
2023-04-18T05:50:35.981Z,9.456762
2023-04-18T05:51:35.946Z,9.457071
2023-04-18T05:52:35.924Z,9.457133
2023-04-18T05:53:35.926Z,9.457052
2023-04-18T05:54:35.910Z,9.456898
2023-04-18T05:55:35.918Z,9.456874
2023-04-18T05:56:35.906Z,9.457126
2023-04-18T05:57:35.874Z,9.457367
2023-04-18T05:58:35.863Z,9.457535
2023-04-18T05:59:35.871Z,9.457398
2023-04-18T06:00:35.926Z,9.457488
2023-04-18T06:01:35.840Z,9.457383
2023-04-18T06:02:35.961Z,9.457308
2023-04-18T06:03:36.046Z,9.457145
2023-04-18T06:04:35.960Z,9.457046
2023-04-18T06:05:35.946Z,9.457196
2023-04-18T06:06:35.778Z,9.457198
2023-04-18T06:07:35.777Z,9.457260
2023-04-18T06:08:35.755Z,9.457390
2023-04-18T06:09:35.757Z,9.457498
2023-04-18T06:10:37.735Z,9.457409
2023-04-18T06:11:35.763Z,9.457317
2023-04-18T06:12:35.742Z,9.457373
2023-04-18T06:13:35.723Z,9.457465
2023-04-18T06:14:35.701Z,9.457388
2023-04-18T06:15:35.717Z,9.457432
2023-04-18T06:16:35.746Z,9.457301
2023-04-18T06:17:35.699Z,9.457308
2023-04-18T06:18:35.785Z,9.457232
2023-04-18T06:19:35.660Z,9.457233
2023-04-18T06:20:35.669Z,9.457355
2023-04-18T06:21:35.625Z,9.457376
2023-04-18T06:22:35.627Z,9.457189
2023-04-18T06:23:35.630Z,9.457286
2023-04-18T06:24:35.613Z,9.457274
2023-04-18T06:25:35.620Z,9.457257
2023-04-18T06:26:35.572Z,9.457213
2023-04-18T06:27:35.564Z,9.457112
2023-04-18T06:28:35.586Z,9.456949
2023-04-18T06:29:36.230Z,9.457191
2023-04-18T06:30:36.559Z,9.456990
2023-04-18T06:31:35.596Z,9.456935
2023-04-18T06:32:35.640Z,9.456956
2023-04-18T06:33:35.500Z,9.457013
2023-04-18T06:34:35.490Z,9.457077
2023-04-18T06:35:35.520Z,9.457080
2023-04-18T06:36:35.472Z,9.457150
2023-04-18T06:37:35.471Z,9.457129
2023-04-18T06:38:35.457Z,9.457226
2023-04-18T06:39:35.443Z,9.457066
2023-04-18T06:40:35.470Z,9.457150
2023-04-18T06:41:35.432Z,9.456934
2023-04-18T06:42:35.406Z,9.457081
2023-04-18T06:43:35.397Z,9.457286
2023-04-18T06:44:35.395Z,9.457162
2023-04-18T06:45:35.407Z,9.457208
2023-04-18T06:46:35.374Z,9.457065
2023-04-18T06:47:35.384Z,9.457001
2023-04-18T06:48:35.355Z,9.456998
2023-04-18T06:49:35.346Z,9.456989
2023-04-18T06:50:35.361Z,9.456994
2023-04-18T06:51:35.319Z,9.456996
2023-04-18T06:52:35.310Z,9.457050
2023-04-18T06:53:35.302Z,9.456969
2023-04-18T06:54:35.295Z,9.456889
2023-04-18T06:55:35.407Z,9.456897
2023-04-18T06:56:36.583Z,9.457003
2023-04-18T06:57:36.263Z,9.457013
2023-04-18T06:58:35.245Z,9.457129
2023-04-18T06:59:35.236Z,9.457141
2023-04-18T07:00:35.323Z,9.457089
2023-04-18T07:01:35.327Z,9.457123
2023-04-18T07:02:35.334Z,9.457221
2023-04-18T07:03:35.289Z,9.457194
2023-04-18T07:04:35.271Z,9.457175
2023-04-18T07:05:35.205Z,9.456935
2023-04-18T07:06:36.181Z,9.457159
2023-04-18T07:07:35.165Z,9.457224
2023-04-18T07:08:35.150Z,9.457323
2023-04-18T07:09:35.134Z,9.457276
2023-04-18T07:10:35.128Z,9.457207
2023-04-18T07:11:35.161Z,9.457335
2023-04-18T07:12:35.109Z,9.457471
2023-04-18T07:13:35.099Z,9.457330
2023-04-18T07:14:35.097Z,9.457217
2023-04-18T07:15:35.072Z,9.457427
2023-04-18T07:16:35.108Z,9.457302
2023-04-18T07:17:35.071Z,9.457282
2023-04-18T07:18:38.302Z,9.457344
2023-04-18T07:19:36.041Z,9.457171
2023-04-18T07:20:35.045Z,9.457284
2023-04-18T07:21:35.061Z,9.457281
2023-04-18T07:22:35.020Z,9.457278
2023-04-18T07:23:36.057Z,9.457244
2023-04-18T07:24:34.976Z,9.457334
2023-04-18T07:25:35.977Z,9.457196
2023-04-18T07:26:34.978Z,9.457242
2023-04-18T07:27:35.071Z,9.457396
2023-04-18T07:28:34.955Z,9.457174
2023-04-18T07:29:34.942Z,9.457214
2023-04-18T07:30:34.948Z,9.457208
2023-04-18T07:31:34.978Z,9.457250
2023-04-18T07:32:35.000Z,9.457133
2023-04-18T07:33:34.907Z,9.457124
2023-04-18T07:34:34.888Z,9.457168
2023-04-18T07:35:34.887Z,9.457324
2023-04-18T07:36:34.882Z,9.457157
2023-04-18T07:37:34.865Z,9.457191
2023-04-18T07:38:34.842Z,9.457219
2023-04-18T07:39:34.842Z,9.457269
2023-04-18T07:40:34.836Z,9.457214
2023-04-18T07:41:34.839Z,9.457298
2023-04-18T07:42:34.825Z,9.457902
2023-04-18T07:43:34.887Z,9.457484
2023-04-18T07:44:34.823Z,9.457288
2023-04-18T07:45:34.778Z,9.457193
2023-04-18T07:46:34.805Z,9.457232
2023-04-18T07:47:34.825Z,9.457236
2023-04-18T07:48:34.751Z,9.457242
2023-04-18T07:49:34.734Z,9.457399
2023-04-18T07:50:34.743Z,9.457274
2023-04-18T07:51:34.772Z,9.457011
2023-04-18T07:52:34.749Z,9.457095
2023-04-18T07:53:34.707Z,9.457086
2023-04-18T07:54:34.715Z,9.457229
2023-04-18T07:55:34.685Z,9.457191
2023-04-18T07:56:34.742Z,9.457166
2023-04-18T07:57:34.672Z,9.457138
2023-04-18T07:58:34.679Z,9.457109
2023-04-18T07:59:34.641Z,9.457158
2023-04-18T08:00:34.635Z,9.457146
2023-04-18T08:01:34.672Z,9.457184
2023-04-18T08:02:34.737Z,9.457202
2023-04-18T08:03:34.674Z,9.457211
2023-04-18T08:04:34.724Z,9.457115
2023-04-18T08:05:34.691Z,9.457178
2023-04-18T08:06:34.647Z,9.457168
2023-04-18T08:07:34.565Z,9.457316
2023-04-18T08:08:34.550Z,9.457306
2023-04-18T08:09:34.544Z,9.457282
2023-04-18T08:10:34.533Z,9.457368
2023-04-18T08:11:34.542Z,9.457406
2023-04-18T08:12:34.536Z,9.457324
2023-04-18T08:13:34.509Z,9.457292
2023-04-18T08:14:34.496Z,9.457412
2023-04-18T08:15:34.484Z,9.457580
2023-04-18T08:16:34.518Z,9.457574
2023-04-18T08:17:34.471Z,9.457265
2023-04-18T08:18:34.451Z,9.457183
2023-04-18T08:19:34.443Z,9.457323
2023-04-18T08:20:34.428Z,9.457303
2023-04-18T08:21:34.471Z,9.457347
2023-04-18T08:22:34.415Z,9.457417
2023-04-18T08:23:34.415Z,9.457299
2023-04-18T08:24:34.389Z,9.457296
2023-04-18T08:25:34.383Z,9.457206
2023-04-18T08:26:34.386Z,9.457164
2023-04-18T08:27:34.380Z,9.457177
2023-04-18T08:28:34.348Z,9.457073
2023-04-18T08:29:34.337Z,9.457175
2023-04-18T08:30:35.318Z,9.457327
2023-04-18T08:31:34.368Z,9.457418
2023-04-18T08:32:34.332Z,9.457272
2023-04-18T08:33:34.303Z,9.457238
2023-04-18T08:34:34.291Z,9.457254
2023-04-18T08:35:34.288Z,9.457254
2023-04-18T08:36:34.311Z,9.457302
2023-04-18T08:37:34.259Z,9.457257
2023-04-18T08:38:34.254Z,9.457232
2023-04-18T08:39:34.237Z,9.457254
2023-04-18T08:40:34.220Z,9.457290
2023-04-18T08:41:34.258Z,9.457249
2023-04-18T08:42:34.220Z,9.457210
2023-04-18T08:43:34.208Z,9.457253
2023-04-18T08:44:34.187Z,9.457253
2023-04-18T08:45:34.273Z,9.457268
2023-04-18T08:46:34.192Z,9.457309
2023-04-18T08:47:34.177Z,9.457269
2023-04-18T08:48:34.148Z,9.457256
2023-04-18T08:49:34.134Z,9.457292
2023-04-18T08:50:34.120Z,9.457314
2023-04-18T08:51:34.166Z,9.457257
2023-04-18T08:52:34.142Z,9.457301
2023-04-18T08:53:34.130Z,9.457325
2023-04-18T08:54:34.085Z,9.457279
2023-04-18T08:55:34.066Z,9.457273
2023-04-18T08:56:34.084Z,9.457236
2023-04-18T08:57:34.051Z,9.457207
2023-04-18T08:58:34.044Z,9.457229
2023-04-18T08:59:34.034Z,9.457298
2023-04-18T09:00:34.022Z,9.457269
2023-04-18T09:01:34.073Z,9.457251
2023-04-18T09:02:35.163Z,9.457271
2023-04-18T09:03:34.011Z,9.457355
2023-04-18T09:04:34.097Z,9.457278
2023-04-18T09:05:33.981Z,9.457271
2023-04-18T09:06:33.975Z,9.457298
2023-04-18T09:07:34.960Z,9.457230
2023-04-18T09:08:33.935Z,9.457259
2023-04-18T09:09:33.922Z,9.457281
2023-04-18T09:10:33.936Z,9.457185
2023-04-18T09:11:33.937Z,9.457301
2023-04-18T09:12:33.905Z,9.457228
2023-04-18T09:13:33.893Z,9.457274
2023-04-18T09:14:33.886Z,9.457264
2023-04-18T09:15:33.872Z,9.457262
2023-04-18T09:16:33.939Z,9.457300
2023-04-18T09:17:33.918Z,9.457240
2023-04-18T09:18:33.837Z,9.457223
2023-04-18T09:19:33.855Z,9.457312
2023-04-18T09:20:33.813Z,9.457303
2023-04-18T09:21:33.857Z,9.457279
2023-04-18T09:22:33.797Z,9.457307
2023-04-18T09:23:33.794Z,9.457294
2023-04-18T09:24:33.775Z,9.457281
2023-04-18T09:25:33.774Z,9.457271
2023-04-18T09:26:33.790Z,9.457235
2023-04-18T09:27:33.754Z,9.457239
2023-04-18T09:28:33.801Z,9.457260
2023-04-18T09:29:33.729Z,9.457343
2023-04-18T09:30:33.742Z,9.457312
2023-04-18T09:31:33.783Z,9.457238
2023-04-18T09:32:33.748Z,9.457306
2023-04-18T09:33:33.702Z,9.457251
2023-04-18T09:34:33.677Z,9.457387
2023-04-18T09:35:34.038Z,9.457102
2023-04-18T09:36:34.693Z,9.457067
2023-04-18T09:37:33.652Z,9.457243
2023-04-18T09:38:33.641Z,9.457317
2023-04-18T09:39:33.628Z,9.457182
2023-04-18T09:40:33.625Z,9.457226
2023-04-18T09:41:33.640Z,9.457191
2023-04-18T09:42:33.602Z,9.457233
2023-04-18T09:43:33.593Z,9.457317
2023-04-18T09:44:33.580Z,9.457210
2023-04-18T09:45:33.569Z,9.457313
2023-04-18T09:46:33.598Z,9.457208
2023-04-18T09:47:33.605Z,9.457223
2023-04-18T09:48:33.538Z,9.457310
2023-04-18T09:49:33.539Z,9.457179
2023-04-18T09:50:33.519Z,9.457201
2023-04-18T09:51:33.541Z,9.457191
2023-04-18T09:52:33.501Z,9.457373
2023-04-18T09:53:33.497Z,9.457388
2023-04-18T09:54:33.493Z,9.457257
2023-04-18T09:55:33.484Z,9.457270
2023-04-18T09:56:33.463Z,9.457320
2023-04-18T09:57:33.475Z,9.457319
2023-04-18T09:58:33.442Z,9.457176
2023-04-18T09:59:33.432Z,9.457331
2023-04-18T10:00:33.428Z,9.457341
2023-04-18T10:01:33.461Z,9.457237
2023-04-18T10:03:05.392Z,9.457283
2023-04-18T10:03:33.487Z,9.457220
2023-04-18T10:04:33.474Z,9.457236
2023-04-18T10:05:33.497Z,9.457253
2023-04-18T10:06:33.403Z,9.457306
2023-04-18T10:07:33.402Z,9.457258
2023-04-18T10:08:33.361Z,9.457273
2023-04-18T10:09:33.336Z,9.457302
2023-04-18T10:10:33.328Z,9.457304
2023-04-18T10:11:33.338Z,9.457258
2023-04-18T10:12:33.309Z,9.457265
2023-04-18T10:13:33.293Z,9.457321
2023-04-18T10:14:33.283Z,9.457328
2023-04-18T10:15:33.353Z,9.457319
2023-04-18T10:16:34.971Z,9.457337
2023-04-18T10:17:33.355Z,9.457360
2023-04-18T10:18:33.278Z,9.457265
2023-04-18T10:19:33.239Z,9.457315
2023-04-18T10:20:33.212Z,9.457284
2023-04-18T10:21:33.295Z,9.457241
2023-04-18T10:22:33.227Z,9.457230
2023-04-18T10:23:33.186Z,9.457245
2023-04-18T10:24:33.192Z,9.457248
2023-04-18T10:25:33.183Z,9.457223
2023-04-18T10:26:33.194Z,9.457203
2023-04-18T10:27:33.150Z,9.457214
2023-04-18T10:28:33.139Z,9.457376
2023-04-18T10:29:33.149Z,9.457326
2023-04-18T10:30:33.117Z,9.457254
2023-04-18T10:31:33.184Z,9.457245
2023-04-18T10:32:33.150Z,9.457292
2023-04-18T10:33:33.642Z,9.457306
2023-04-18T10:34:33.090Z,9.457247
2023-04-18T10:35:33.099Z,9.457221
2023-04-18T10:36:33.109Z,9.457301
2023-04-18T10:37:33.075Z,9.457214
2023-04-18T10:38:33.055Z,9.457208
2023-04-18T10:39:33.043Z,9.457238
2023-04-18T10:40:33.058Z,9.457221
2023-04-18T10:41:33.033Z,9.457214
2023-04-18T10:42:33.073Z,9.457301
2023-04-18T10:43:33.002Z,9.457311
2023-04-18T10:44:33.019Z,9.457231
2023-04-18T10:45:32.975Z,9.457240
2023-04-18T10:46:33.121Z,9.457230
2023-04-18T10:47:33.200Z,9.457292
2023-04-18T10:48:33.031Z,9.457207
2023-04-18T10:49:33.875Z,9.457147
2023-04-18T10:50:32.927Z,9.457316
2023-04-18T10:51:32.927Z,9.457270
2023-04-18T10:52:32.931Z,9.457208
2023-04-18T10:53:32.905Z,9.457278
2023-04-18T10:54:32.896Z,9.457271
2023-04-18T10:55:33.050Z,9.457230
2023-04-18T10:56:32.917Z,9.457193
2023-04-18T10:57:32.853Z,9.457341
2023-04-18T10:58:32.839Z,9.457266
2023-04-18T10:59:32.859Z,9.457269
2023-04-18T11:00:32.888Z,9.457303
2023-04-18T11:01:33.150Z,9.457282
2023-04-18T11:02:32.968Z,9.457237
2023-04-18T11:03:32.861Z,9.457320
2023-04-18T11:04:32.820Z,9.457246
2023-04-18T11:05:32.791Z,9.457333
2023-04-18T11:06:32.775Z,9.457269
2023-04-18T11:07:32.761Z,9.457110
2023-04-18T11:08:32.742Z,9.457273
2023-04-18T11:09:32.749Z,9.457290
2023-04-18T11:10:32.731Z,9.457268
2023-04-18T11:11:32.765Z,9.457274
2023-04-18T11:12:32.711Z,9.457339
2023-04-18T11:13:32.703Z,9.457261
2023-04-18T11:14:32.691Z,9.457236
2023-04-18T11:15:32.677Z,9.457201
2023-04-18T11:16:32.755Z,9.457173
2023-04-18T11:17:32.738Z,9.457262
2023-04-18T11:18:32.643Z,9.457165
2023-04-18T11:19:32.626Z,9.457290
2023-04-18T11:20:32.618Z,9.457263
2023-04-18T11:21:32.630Z,9.457220
2023-04-18T11:22:32.684Z,9.457257
2023-04-18T11:23:32.592Z,9.457218
2023-04-18T11:24:32.584Z,9.457389
2023-04-18T11:25:32.568Z,9.457316
2023-04-18T11:26:32.585Z,9.457131
2023-04-18T11:27:32.556Z,9.457226
2023-04-18T11:28:32.552Z,9.457318
2023-04-18T11:29:32.529Z,9.457244
2023-04-18T11:30:32.526Z,9.457219
2023-04-18T11:31:32.602Z,9.457161
2023-04-18T11:32:32.629Z,9.457158
2023-04-18T11:33:32.510Z,9.457164
2023-04-18T11:34:32.485Z,9.457104
2023-04-18T11:35:32.496Z,9.457252
2023-04-18T11:36:32.474Z,9.457252
2023-04-18T11:37:32.458Z,9.457202
2023-04-18T11:38:32.448Z,9.457326
2023-04-18T11:39:32.438Z,9.457219
2023-04-18T11:40:32.440Z,9.457256
2023-04-18T11:41:32.488Z,9.457195
2023-04-18T11:42:32.402Z,9.457221
2023-04-18T11:43:32.420Z,9.457320
2023-04-18T11:44:33.756Z,9.457258